sensor_id;sensor_type;location;lat;lon;timestamp;pressure;altitude;pressure_sealevel;temperature;humidity
6020;BME280;3038;51.122;6.840;2024-01-06T07:27:33;100340.03;;;6.49;100.00
6020;BME280;3038;51.122;6.840;2024-01-06T07:29:58;100337.03;;;6.25;100.00
6020;BME280;3038;51.122;6.840;2024-01-06T07:32:24;100351.31;;;6.12;100.00
6020;BME280;3038;51.122;6.840;2024-01-06T07:34:52;100347.59;;;6.05;100.00
6020;BME280;3038;51.122;6.840;2024-01-06T07:37:20;100359.22;;;5.93;100.00
6020;BME280;3038;51.122;6.840;2024-01-06T07:39:45;100348.97;;;5.90;100.00
6020;BME280;3038;51.122;6.840;2024-01-06T07:42:11;100365.59;;;5.81;100.00
6020;BME280;3038;51.122;6.840;2024-01-06T07:44:36;100360.59;;;5.78;100.00
6020;BME280;3038;51.122;6.840;2024-01-06T07:47:02;100369.72;;;5.74;100.00
6020;BME280;3038;51.122;6.840;2024-01-06T07:49:30;100370.44;;;5.66;100.00
6020;BME280;3038;51.122;6.840;2024-01-06T07:51:55;100379.00;;;5.58;100.00
6020;BME280;3038;51.122;6.840;2024-01-06T07:54:21;100379.97;;;5.57;100.00
6020;BME280;3038;51.122;6.840;2024-01-06T07:56:46;100380.66;;;5.59;100.00
6020;BME280;3038;51.122;6.840;2024-01-06T07:59:12;100380.66;;;5.59;100.00
6020;BME280;3038;51.122;6.840;2024-01-06T08:01:37;100390.50;;;5.57;100.00
6020;BME280;3038;51.122;6.840;2024-01-06T08:04:02;100396.59;;;5.58;100.00
6020;BME280;3038;51.122;6.840;2024-01-06T08:06:31;100394.78;;;5.58;100.00
6020;BME280;3038;51.122;6.840;2024-01-06T08:08:56;100396.31;;;5.51;100.00
6020;BME280;3038;51.122;6.840;2024-01-06T08:11:21;100408.78;;;5.49;100.00
6020;BME280;3038;51.122;6.840;2024-01-06T08:13:47;100406.41;;;5.56;100.00
6020;BME280;3038;51.122;6.840;2024-01-06T08:16:12;100419.59;;;5.56;100.00
6020;BME280;3038;51.122;6.840;2024-01-06T08:18:38;100419.47;;;5.57;100.00
6020;BME280;3038;51.122;6.840;2024-01-06T08:21:03;100425.72;;;5.56;100.00
6020;BME280;3038;51.122;6.840;2024-01-06T08:23:28;100431.25;;;5.53;100.00
6020;BME280;3038;51.122;6.840;2024-01-06T08:25:54;100438.88;;;5.56;100.00
6020;BME280;3038;51.122;6.840;2024-01-06T08:28:21;100440.09;;;5.52;100.00
6020;BME280;3038;51.122;6.840;2024-01-06T08:30:49;100444.16;;;5.56;100.00
6020;BME280;3038;51.122;6.840;2024-01-06T08:33:14;100443.56;;;5.53;100.00
6020;BME280;3038;51.122;6.840;2024-01-06T08:35:39;100442.03;;;5.50;100.00
6020;BME280;3038;51.122;6.840;2024-01-06T08:38:06;100443.44;;;5.54;100.00
6020;BME280;3038;51.122;6.840;2024-01-06T08:40:32;100455.38;;;5.58;100.00
6020;BME280;3038;51.122;6.840;2024-01-06T08:42:58;100455.63;;;5.55;100.00
6020;BME280;3038;51.122;6.840;2024-01-06T08:45:23;100462.84;;;5.53;100.00
6020;BME280;3038;51.122;6.840;2024-01-06T08:47:49;100467.81;;;5.47;100.00
6020;BME280;3038;51.122;6.840;2024-01-06T08:50:16;100475.56;;;5.48;100.00
6020;BME280;3038;51.122;6.840;2024-01-06T08:52:41;100473.06;;;5.47;100.00
6020;BME280;3038;51.122;6.840;2024-01-06T08:55:07;100481.38;;;5.42;100.00
6020;BME280;3038;51.122;6.840;2024-01-06T08:57:33;100486.94;;;5.49;100.00
6020;BME280;3038;51.122;6.840;2024-01-06T08:59:58;100486.25;;;5.47;100.00
6020;BME280;3038;51.122;6.840;2024-01-06T09:02:24;100492.44;;;5.46;100.00
6020;BME280;3038;51.122;6.840;2024-01-06T09:04:49;100488.56;;;5.40;100.00
6020;BME280;3038;51.122;6.840;2024-01-06T09:07:14;100498.28;;;5.49;100.00
6020;BME280;3038;51.122;6.840;2024-01-06T09:09:40;100497.91;;;5.54;100.00
6020;BME280;3038;51.122;6.840;2024-01-06T09:12:05;100504.97;;;5.53;100.00
6020;BME280;3038;51.122;6.840;2024-01-06T09:14:31;100507.19;;;5.58;100.00
6020;BME280;3038;51.122;6.840;2024-01-06T09:16:56;100510.28;;;5.63;100.00
6020;BME280;3038;51.122;6.840;2024-01-06T09:19:21;100510.13;;;5.64;100.00
6020;BME280;3038;51.122;6.840;2024-01-06T09:21:47;100513.34;;;5.68;100.00
6020;BME280;3038;51.122;6.840;2024-01-06T09:24:14;100510.84;;;5.66;100.00
6020;BME280;3038;51.122;6.840;2024-01-06T09:26:42;100520.50;;;5.56;100.00
6020;BME280;3038;51.122;6.840;2024-01-06T09:29:07;100521.03;;;5.50;100.00
6020;BME280;3038;51.122;6.840;2024-01-06T09:31:35;100529.69;;;5.41;100.00
6020;BME280;3038;51.122;6.840;2024-01-06T09:34:01;100531.34;;;5.32;100.00
6020;BME280;3038;51.122;6.840;2024-01-06T09:36:27;100542.56;;;5.34;100.00
6020;BME280;3038;51.122;6.840;2024-01-06T09:38:53;100546.75;;;5.37;100.00
6020;BME280;3038;51.122;6.840;2024-01-06T09:41:19;100549.63;;;5.34;100.00
